createdAt,value
2023-04-11T00:00:09.842Z,98409.38
2023-04-11T00:02:39.183Z,98405.88
2023-04-11T00:05:08.608Z,98400.50
2023-04-11T00:07:37.026Z,98395.97
2023-04-11T00:10:07.222Z,98395.97
2023-04-11T00:12:36.959Z,98400.34
2023-04-11T00:15:06.562Z,98394.09
2023-04-11T00:17:37.797Z,98377.16
2023-04-11T00:20:08.557Z,98382.53
2023-04-11T00:22:36.886Z,98370.97
2023-04-11T00:25:05.863Z,98378.00
2023-04-11T00:27:34.227Z,98363.75
2023-04-11T00:30:04.017Z,98367.44
2023-04-11T00:32:32.641Z,98356.72
2023-04-11T00:35:01.060Z,98359.19
2023-04-11T00:37:29.443Z,98351.34
2023-04-11T00:39:57.794Z,98353.00
2023-04-11T00:42:26.154Z,98354.03
2023-04-11T00:44:54.541Z,98357.53
2023-04-11T00:47:24.314Z,98351.00
2023-04-11T00:49:52.698Z,98340.41
2023-04-11T00:52:21.340Z,98343.09
2023-04-11T00:54:50.058Z,98343.09
2023-04-11T00:57:18.393Z,98339.78
2023-04-11T00:59:48.324Z,98335.22
2023-04-11T01:02:18.286Z,98331.72
2023-04-11T01:04:48.184Z,98335.22
2023-04-11T01:07:16.565Z,98332.53
2023-04-11T01:09:44.879Z,98327.19
2023-04-11T01:12:14.905Z,98329.03
2023-04-11T01:14:43.278Z,98329.03
2023-04-11T01:17:14.356Z,98321.97
2023-04-11T01:19:42.737Z,98325.50
2023-04-11T01:22:13.221Z,98313.91
2023-04-11T01:24:42.946Z,98319.13
2023-04-11T01:27:11.390Z,98325.50
2023-04-11T01:29:39.807Z,98321.97
2023-04-11T01:32:08.424Z,98323.81
2023-04-11T01:34:37.138Z,98323.81
2023-04-11T01:37:05.581Z,98318.44
2023-04-11T01:39:33.967Z,98321.97
2023-04-11T01:42:03.889Z,98308.53
2023-04-11T01:44:33.077Z,98304.19
2023-04-11T01:47:01.582Z,98303.38
2023-04-11T01:49:29.935Z,98304.19
2023-04-11T01:51:58.291Z,98307.72
2023-04-11T01:54:26.714Z,98306.03
2023-04-11T01:56:55.103Z,98296.97
2023-04-11T01:59:24.870Z,98295.31
2023-04-11T02:01:53.229Z,98292.63
2023-04-11T02:04:21.969Z,98296.97
2023-04-11T02:06:50.413Z,98298.81
2023-04-11T02:09:18.793Z,98288.09
2023-04-11T02:11:47.186Z,98287.25
2023-04-11T02:14:16.461Z,98277.50
2023-04-11T02:16:56.071Z,98264.94
2023-04-11T02:19:26.208Z,98259.56
2023-04-11T02:21:54.733Z,98252.50
2023-04-11T02:24:23.103Z,98254.22
2023-04-11T02:26:51.427Z,98255.88
2023-04-11T02:29:19.775Z,98249.00
2023-04-11T02:31:50.221Z,98247.97
2023-04-11T02:34:20.055Z,98245.28
2023-04-11T02:36:49.068Z,98243.47
2023-04-11T02:39:17.414Z,98243.47
2023-04-11T02:41:45.821Z,98243.47
2023-04-11T02:44:14.400Z,98234.56
2023-04-11T02:46:42.773Z,98230.88
2023-04-11T02:49:11.200Z,98220.31
2023-04-11T02:51:41.087Z,98210.41
2023-04-11T02:54:09.432Z,98218.63
2023-04-11T02:56:38.885Z,98214.25
2023-04-11T02:59:07.723Z,98204.19
2023-04-11T03:01:37.695Z,98206.03
2023-04-11T03:04:07.360Z,98207.72
2023-04-11T03:06:36.125Z,98207.91
2023-04-11T03:09:06.016Z,98214.09
2023-04-11T03:11:34.391Z,98205.22
2023-04-11T03:14:03.053Z,98211.41
2023-04-11T03:16:31.559Z,98206.22
2023-04-11T03:18:59.932Z,98209.75
2023-04-11T03:21:28.414Z,98220.50
2023-04-11T03:23:56.711Z,98206.03
2023-04-11T03:26:27.349Z,98207.06
2023-04-11T03:28:56.529Z,98207.06
2023-04-11T03:31:25.121Z,98200.84
2023-04-11T03:33:53.504Z,98200.84
2023-04-11T03:36:22.526Z,98193.66
2023-04-11T03:38:50.887Z,98198.16
2023-04-11T03:41:19.534Z,98185.59
2023-04-11T03:43:49.287Z,98193.66
2023-04-11T03:46:17.688Z,98191.78
2023-04-11T03:48:47.181Z,98189.28
2023-04-11T03:51:15.541Z,98187.41
2023-04-11T03:53:43.849Z,98178.53
2023-04-11T03:56:12.325Z,98183.91
2023-04-11T03:58:40.624Z,98183.91
2023-04-11T04:01:10.312Z,98175.84
2023-04-11T04:03:38.934Z,98169.50
2023-04-11T04:06:08.184Z,98168.63
2023-04-11T04:08:36.766Z,98161.59
2023-04-11T04:11:05.451Z,98158.91
2023-04-11T04:13:34.035Z,98153.53
2023-04-11T04:16:03.653Z,98146.31
2023-04-11T04:18:33.691Z,98140.94
2023-04-11T04:21:02.029Z,98151.69
2023-04-11T04:23:32.542Z,98146.31
2023-04-11T04:26:02.356Z,98149.00
2023-04-11T04:28:31.184Z,98146.31
2023-04-11T04:30:59.554Z,98146.31
2023-04-11T04:33:27.936Z,98139.09
2023-04-11T04:35:59.907Z,98135.59
2023-04-11T04:38:29.064Z,98131.91
2023-04-11T04:40:57.414Z,98135.41
2023-04-11T04:43:27.395Z,98126.53
2023-04-11T04:45:55.844Z,98127.84
2023-04-11T04:48:25.638Z,98129.84
2023-04-11T04:50:54.072Z,98137.28
2023-04-11T04:53:23.781Z,98123.00
2023-04-11T04:55:52.330Z,98130.22
2023-04-11T04:58:20.782Z,98119.47
2023-04-11T05:00:55.916Z,98123.19
2023-04-11T05:03:24.850Z,98105.22
2023-04-11T05:05:53.287Z,98108.56
2023-04-11T05:08:22.956Z,98102.38
2023-04-11T05:10:51.353Z,98098.50
2023-04-11T05:13:19.786Z,98088.59
2023-04-11T05:15:49.428Z,98090.25
2023-04-11T05:18:17.780Z,98088.22
2023-04-11T05:20:46.277Z,98079.81
2023-04-11T05:23:14.651Z,98084.53
2023-04-11T05:25:44.356Z,98077.97
2023-04-11T05:28:12.707Z,98076.84
2023-04-11T05:30:41.410Z,98070.16
2023-04-11T05:33:09.900Z,98074.03
2023-04-11T05:35:38.389Z,98050.34
2023-04-11T05:38:06.803Z,98050.66
2023-04-11T05:40:35.131Z,98047.97
2023-04-11T05:43:05.375Z,98045.94
2023-04-11T05:45:33.717Z,98042.91
2023-04-11T05:48:02.149Z,98041.03
2023-04-11T05:50:30.529Z,98029.28
2023-04-11T05:52:58.881Z,98036.13
2023-04-11T05:55:27.326Z,98038.00
2023-04-11T05:57:55.849Z,98035.13
2023-04-11T06:00:26.326Z,98033.94
2023-04-11T06:02:55.097Z,98031.06
2023-04-11T06:05:23.600Z,98026.50
2023-04-11T06:07:52.122Z,98028.56
2023-04-11T06:10:20.518Z,98024.84
2023-04-11T06:12:48.916Z,98024.84
2023-04-11T06:15:17.314Z,98018.28
2023-04-11T06:17:47.119Z,98013.94
2023-04-11T06:20:16.137Z,98006.72
2023-04-11T06:22:46.365Z,98012.91
2023-04-11T06:25:15.778Z,98009.22
2023-04-11T06:27:44.115Z,98008.22
2023-04-11T06:30:14.034Z,97996.44
2023-04-11T06:35:12.320Z,97999.41
2023-04-11T06:37:42.479Z,98004.63
2023-04-11T06:40:12.782Z,98003.13
2023-04-11T06:42:41.286Z,97991.91
2023-04-11T06:45:12.113Z,97989.22
2023-04-11T06:47:40.585Z,97980.16
2023-04-11T06:50:12.243Z,97972.09
2023-04-11T06:52:40.643Z,97972.94
2023-04-11T06:55:10.280Z,97967.56
2023-04-11T06:57:38.727Z,97965.53
2023-04-11T07:00:09.655Z,97962.84
2023-04-11T07:02:39.385Z,97963.47
2023-04-11T07:05:10.309Z,97954.59
2023-04-11T07:07:40.327Z,97959.97
2023-04-11T07:10:10.211Z,97968.84
2023-04-11T07:12:38.572Z,97958.09
2023-04-11T07:15:08.664Z,97968.22
2023-04-11T07:17:37.193Z,97964.50
2023-04-11T07:20:08.904Z,97968.84
2023-04-11T07:22:37.720Z,97969.03
2023-04-11T07:25:08.802Z,97968.84
2023-04-11T07:27:37.303Z,97968.84
2023-04-11T07:30:07.161Z,97970.53
2023-04-11T07:32:35.494Z,97967.84
2023-04-11T07:35:03.915Z,97964.13
2023-04-11T07:37:32.666Z,97963.97
2023-04-11T07:40:01.053Z,97958.09
2023-04-11T07:42:30.803Z,97941.38
2023-04-11T07:44:59.193Z,97928.75
2023-04-11T07:47:27.657Z,97914.31
2023-04-11T07:49:56.041Z,97909.75
2023-04-11T07:52:24.362Z,97905.25
2023-04-11T07:54:52.776Z,97901.69
2023-04-11T07:57:21.216Z,97908.75
2023-04-11T07:59:51.213Z,97908.75
2023-04-11T08:02:19.704Z,97907.72
2023-04-11T08:04:48.269Z,97921.16
2023-04-11T08:07:16.685Z,97913.31
2023-04-11T08:09:45.011Z,97904.38
2023-04-11T08:12:13.360Z,97914.13
2023-04-11T08:14:41.744Z,97910.63
2023-04-11T08:17:27.051Z,97902.56
2023-04-11T08:19:57.506Z,97899.88
2023-04-11T08:22:26.057Z,97899.88
2023-04-11T08:24:54.570Z,97889.97
2023-04-11T08:27:23.061Z,97895.34
2023-04-11T08:29:51.686Z,97886.44
2023-04-11T08:32:21.540Z,97887.06
2023-04-11T08:34:49.950Z,97888.94
2023-04-11T08:37:18.301Z,97882.56
2023-04-11T08:39:46.763Z,97881.53
2023-04-11T08:42:25.441Z,97881.34
2023-04-11T08:44:57.807Z,97875.97
2023-04-11T08:47:27.609Z,97865.03
2023-04-11T08:49:56.630Z,97869.38
2023-04-11T08:52:25.078Z,97868.38
2023-04-11T08:54:55.968Z,97861.16
2023-04-11T08:57:28.280Z,97854.75
2023-04-11T08:59:57.285Z,97855.41
2023-04-11T09:02:27.569Z,97845.69
2023-04-11T09:04:57.844Z,97844.47
2023-04-11T09:07:26.863Z,97842.78
2023-04-11T09:09:55.394Z,97835.59
2023-04-11T09:12:30.422Z,97832.69
2023-04-11T09:14:58.829Z,97825.69
2023-04-11T09:17:29.157Z,97818.63
2023-04-11T09:19:57.717Z,97827.53
2023-04-11T09:22:36.091Z,97816.78
2023-04-11T09:25:04.765Z,97810.38
2023-04-11T09:27:33.244Z,97807.69
2023-04-11T09:30:02.222Z,97803.53
2023-04-11T09:32:33.821Z,97798.81
2023-04-11T09:35:16.006Z,97808.72
2023-04-11T09:37:46.883Z,97798.81
2023-04-11T09:40:16.707Z,97801.28
2023-04-11T09:42:45.147Z,97787.03
2023-04-11T09:45:19.435Z,97783.34
2023-04-11T09:47:49.816Z,97780.47
2023-04-11T09:50:18.632Z,97780.47
2023-04-11T09:52:47.182Z,97776.94
2023-04-11T09:55:16.862Z,97766.19
2023-04-11T09:57:47.693Z,97764.34
2023-04-11T10:00:19.624Z,97764.16
2023-04-11T10:02:53.020Z,97755.06
2023-04-11T10:05:22.238Z,97759.19
2023-04-11T10:07:53.814Z,97754.25
2023-04-11T10:10:23.131Z,97749.88
2023-04-11T10:12:51.613Z,97752.56
2023-04-11T10:15:20.051Z,97747.19
2023-04-11T10:18:11.778Z,97740.16
2023-04-11T10:20:46.220Z,97737.31
2023-04-11T10:23:16.130Z,97737.31
2023-04-11T10:25:55.773Z,97727.56
2023-04-11T10:28:38.870Z,97715.81
2023-04-11T10:31:10.033Z,97718.50
2023-04-11T10:33:41.684Z,97719.13
2023-04-11T10:36:11.190Z,97717.47
2023-04-11T10:38:49.732Z,97717.47
2023-04-11T10:41:36.132Z,97717.47
2023-04-11T10:44:21.040Z,97713.75
2023-04-11T10:46:51.677Z,97710.44
2023-04-11T10:49:38.331Z,97699.47
2023-04-11T10:52:27.734Z,97695.97
2023-04-11T10:54:56.280Z,97690.59
2023-04-11T10:57:24.777Z,97693.28
2023-04-11T11:00:01.153Z,97685.22
2023-04-11T11:02:40.085Z,97678.81
2023-04-11T11:05:24.820Z,97676.13
2023-04-11T11:07:54.810Z,97677.00
2023-04-11T11:10:43.042Z,97668.72
2023-04-11T11:13:11.701Z,97674.09
2023-04-11T11:15:40.849Z,97675.78
2023-04-11T11:18:10.851Z,97676.59
2023-04-11T11:20:40.836Z,97675.94
2023-04-11T11:23:10.376Z,97668.72
2023-04-11T11:25:38.824Z,97660.47
2023-04-11T11:28:08.591Z,97667.72
2023-04-11T11:30:37.590Z,97665.03
2023-04-11T11:33:19.202Z,97670.59
2023-04-11T11:35:53.333Z,97664.16
2023-04-11T11:38:22.216Z,97667.72
2023-04-11T11:40:50.773Z,97659.66
2023-04-11T11:43:19.259Z,97665.03
2023-04-11T11:45:47.882Z,97664.00
2023-04-11T11:48:23.397Z,97678.28
2023-04-11T11:50:58.487Z,97676.41
2023-04-11T11:53:27.179Z,97671.41
2023-04-11T11:55:56.895Z,97676.41
2023-04-11T11:58:25.590Z,97677.91
2023-04-11T12:00:54.186Z,97679.75
2023-04-11T12:03:24.368Z,97678.72
2023-04-11T12:05:53.833Z,97680.78
2023-04-11T12:08:24.278Z,97673.56
2023-04-11T12:10:52.797Z,97665.69
2023-04-11T12:13:23.661Z,97665.69
2023-04-11T12:15:53.596Z,97663.84
2023-04-11T12:18:22.830Z,97657.31
2023-04-11T12:20:51.484Z,97654.75
2023-04-11T12:23:19.905Z,97650.03
2023-04-11T12:25:49.756Z,97642.78
2023-04-11T12:28:18.186Z,97647.13
2023-04-11T12:30:46.572Z,97638.66
2023-04-11T12:33:14.944Z,97637.03
2023-04-11T12:35:43.332Z,97627.09
2023-04-11T12:38:14.913Z,97627.94
2023-04-11T12:40:46.590Z,97620.72
2023-04-11T12:43:16.310Z,97624.41
2023-04-11T12:45:44.714Z,97615.13
2023-04-11T12:48:13.105Z,97616.81
2023-04-11T12:50:41.574Z,97618.47
2023-04-11T12:53:09.974Z,97609.97
2023-04-11T12:55:38.426Z,97596.34
2023-04-11T12:58:08.146Z,97596.34
2023-04-11T13:00:37.861Z,97600.06
2023-04-11T13:03:06.748Z,97591.34
2023-04-11T13:05:37.141Z,97587.63
2023-04-11T13:08:05.568Z,97581.25
2023-04-11T13:10:34.034Z,97585.59
2023-04-11T13:13:11.675Z,97581.88
2023-04-11T13:15:47.768Z,97585.41
2023-04-11T13:18:16.258Z,97565.75
2023-04-11T13:20:44.847Z,97571.31
2023-04-11T13:23:14.860Z,97568.44
2023-04-11T13:25:44.982Z,97563.06
2023-04-11T13:28:13.318Z,97567.59
2023-04-11T13:30:42.122Z,97561.41
2023-04-11T13:33:11.956Z,97557.88
2023-04-11T13:35:40.263Z,97561.41
2023-04-11T13:38:08.705Z,97556.25
2023-04-11T13:40:38.265Z,97556.25
2023-04-11T13:43:06.639Z,97551.69
2023-04-11T13:45:35.159Z,97538.25
2023-04-11T13:48:03.930Z,97537.44
2023-04-11T13:50:35.415Z,97542.81
2023-04-11T13:53:03.762Z,97536.56
2023-04-11T13:55:32.191Z,97531.19
2023-04-11T13:58:00.604Z,97533.06
2023-04-11T14:00:29.173Z,97535.56
2023-04-11T14:02:57.757Z,97542.81
2023-04-11T14:05:27.142Z,97537.63
2023-04-11T14:07:57.683Z,97532.06
2023-04-11T14:10:26.079Z,97539.25
2023-04-11T14:12:54.540Z,97542.81
2023-04-11T14:15:23.100Z,97541.94
2023-04-11T14:17:51.559Z,97540.47
2023-04-11T14:20:20.338Z,97534.94
2023-04-11T14:22:48.839Z,97542.16
2023-04-11T14:25:18.553Z,97535.97
2023-04-11T14:27:46.976Z,97528.91
2023-04-11T14:30:15.644Z,97544.03
2023-04-11T14:32:44.086Z,97536.78
2023-04-11T14:35:12.483Z,97540.47
2023-04-11T14:37:41.168Z,97545.03
2023-04-11T14:40:11.428Z,97545.84
2023-04-11T14:42:41.326Z,97536.16
2023-04-11T14:45:10.041Z,97540.69
2023-04-11T14:47:39.988Z,97551.44
2023-04-11T14:50:09.999Z,97542.56
2023-04-11T14:52:38.799Z,97546.06
2023-04-11T14:55:09.141Z,97556.81
2023-04-11T14:57:47.115Z,97556.00
2023-04-11T15:00:19.899Z,97563.84
2023-04-11T15:02:49.302Z,97564.88
2023-04-11T15:05:18.303Z,97562.38
2023-04-11T15:07:47.080Z,97576.63
2023-04-11T15:10:15.861Z,97572.94
2023-04-11T15:12:45.677Z,97578.31
2023-04-11T15:15:14.227Z,97578.50
2023-04-11T15:17:44.260Z,97583.03
2023-04-11T15:20:14.498Z,97578.50
2023-04-11T15:22:43.729Z,97584.91
2023-04-11T15:25:14.038Z,97591.09
2023-04-11T15:27:42.693Z,97583.03
2023-04-11T15:30:13.721Z,97593.78
2023-04-11T15:32:43.681Z,97587.59
2023-04-11T15:35:12.350Z,97589.44
2023-04-11T15:37:41.166Z,97595.66
2023-04-11T15:40:12.389Z,97595.66
2023-04-11T15:42:41.047Z,97605.56
2023-04-11T15:45:11.819Z,97602.06
2023-04-11T15:47:40.283Z,97606.41
2023-04-11T15:50:09.581Z,97605.75
2023-04-11T15:52:37.947Z,97602.88
2023-04-11T15:55:07.954Z,97605.56
2023-04-11T15:57:36.326Z,97604.75
2023-04-11T16:00:09.057Z,97609.25
2023-04-11T16:02:39.037Z,97611.94
2023-04-11T16:05:08.633Z,97612.81
2023-04-11T16:07:37.216Z,97608.25
2023-04-11T16:10:06.412Z,97610.72
2023-04-11T16:12:34.764Z,97602.50
2023-04-11T16:15:03.369Z,97608.50
2023-04-11T16:17:31.839Z,97608.50
2023-04-11T16:20:01.569Z,97604.13
2023-04-11T16:22:30.213Z,97605.81
2023-04-11T16:24:58.735Z,97596.09
2023-04-11T16:27:27.113Z,97599.97
2023-04-11T16:29:59.924Z,97602.50
2023-04-11T16:32:29.011Z,97595.44
2023-04-11T16:34:57.890Z,97594.44
2023-04-11T16:37:27.767Z,97590.72
2023-04-11T16:39:56.990Z,97591.53
2023-04-11T16:42:25.418Z,97590.72
2023-04-11T16:44:53.873Z,97590.53
2023-04-11T16:47:26.243Z,97595.06
2023-04-11T16:49:55.064Z,97589.50
2023-04-11T16:52:23.662Z,97596.72
2023-04-11T16:54:53.626Z,97599.22
2023-04-11T16:57:22.064Z,97602.09
2023-04-11T16:59:51.096Z,97605.59
2023-04-11T17:02:19.929Z,97617.19
2023-04-11T17:04:48.351Z,97607.28
2023-04-11T17:07:17.462Z,97608.13
2023-04-11T17:09:48.588Z,97608.94
2023-04-11T17:12:18.513Z,97605.03
2023-04-11T17:14:47.631Z,97613.91
2023-04-11T17:17:16.068Z,97620.34
2023-04-11T17:19:44.462Z,97618.47
2023-04-11T17:22:12.905Z,97629.22
2023-04-11T17:24:41.936Z,97623.00
2023-04-11T17:27:10.428Z,97625.69
2023-04-11T17:29:40.166Z,97623.19
2023-04-11T17:32:08.547Z,97626.53
2023-04-11T17:34:36.985Z,97625.25
2023-04-11T17:37:06.519Z,97631.47
2023-04-11T17:39:34.895Z,97642.00
2023-04-11T17:42:03.326Z,97649.41
2023-04-11T17:44:31.675Z,97653.97
2023-04-11T17:47:01.466Z,97657.47
2023-04-11T17:49:29.796Z,97668.22
2023-04-11T17:51:59.711Z,97663.72
2023-04-11T17:58:42.546Z,97663.50
2023-04-11T18:01:11.558Z,97671.38
2023-04-11T18:03:41.766Z,97669.53
2023-04-11T18:06:11.060Z,97674.25
2023-04-11T18:08:50.470Z,97679.63
2023-04-11T18:11:21.145Z,97672.59
2023-04-11T18:13:50.470Z,97678.81
2023-04-11T18:16:19.457Z,97677.16
2023-04-11T18:18:49.428Z,97674.47
2023-04-11T18:21:18.106Z,97688.72
2023-04-11T18:23:46.647Z,97687.03
2023-04-11T18:26:15.300Z,97686.03
2023-04-11T18:28:44.220Z,97695.09
2023-04-11T18:31:12.945Z,97702.34
2023-04-11T18:33:44.892Z,97702.34
2023-04-11T18:36:15.883Z,97703.16
2023-04-11T18:38:44.725Z,97703.16
2023-04-11T18:41:13.308Z,97713.47
2023-04-11T18:43:42.373Z,97712.66
2023-04-11T18:46:11.553Z,97728.56
2023-04-11T18:48:40.332Z,97723.00
2023-04-11T18:51:08.872Z,97728.81
2023-04-11T18:53:39.540Z,97726.13
2023-04-11T18:56:08.938Z,97734.41
2023-04-11T18:58:44.960Z,97745.16
2023-04-11T19:01:17.268Z,97748.66
2023-04-11T19:03:46.848Z,97746.16
2023-04-11T19:06:15.632Z,97749.03
2023-04-11T19:08:46.171Z,97749.03
2023-04-11T19:11:14.651Z,97745.53
2023-04-11T19:13:43.158Z,97751.72
2023-04-11T19:16:12.017Z,97755.25
2023-04-11T19:18:40.747Z,97752.56
2023-04-11T19:21:09.283Z,97739.50
2023-04-11T19:23:37.880Z,97748.41
2023-04-11T19:26:09.033Z,97747.56
2023-04-11T19:28:37.553Z,97743.19
2023-04-11T19:31:06.774Z,97744.88
2023-04-11T19:33:36.115Z,97742.47
2023-04-11T19:36:04.998Z,97746.16
2023-04-11T19:38:33.597Z,97745.72
2023-04-11T19:41:13.390Z,97742.84
2023-04-11T19:43:42.798Z,97732.28
2023-04-11T19:46:12.443Z,97735.78
2023-04-11T19:48:41.408Z,97736.19
2023-04-11T19:51:09.993Z,97741.56
2023-04-11T19:53:39.118Z,97747.75
2023-04-11T19:56:09.976Z,97752.28
2023-04-11T19:58:39.988Z,97750.63
2023-04-11T20:01:09.800Z,97746.09
2023-04-11T20:03:38.570Z,97746.91
2023-04-11T20:06:07.988Z,97741.56
2023-04-11T20:08:38.278Z,97744.22
2023-04-11T20:11:07.280Z,97745.28
2023-04-11T20:13:36.272Z,97745.28
2023-04-11T20:16:09.453Z,97740.72
2023-04-11T20:18:38.008Z,97746.09
2023-04-11T20:21:07.834Z,97749.59
2023-04-11T20:23:37.164Z,97745.28
2023-04-11T20:26:05.998Z,97738.22
2023-04-11T20:28:34.410Z,97746.28
2023-04-11T20:31:04.468Z,97748.97
2023-04-11T20:33:34.397Z,97745.44
2023-04-11T20:36:03.795Z,97742.75
2023-04-11T20:38:32.397Z,97744.59
2023-04-11T20:41:03.877Z,97738.22
2023-04-11T20:43:32.714Z,97741.56
2023-04-11T20:46:01.124Z,97744.22
2023-04-11T20:48:30.176Z,97740.59
2023-04-11T20:51:01.860Z,97742.94
2023-04-11T20:53:30.423Z,97748.97
2023-04-11T20:55:58.920Z,97756.00
2023-04-11T20:58:28.395Z,97751.47
2023-04-11T21:00:56.839Z,97745.28
2023-04-11T21:03:25.412Z,97749.81
2023-04-11T21:05:53.889Z,97745.28
2023-04-11T21:08:24.123Z,97753.69
2023-04-11T21:10:52.457Z,97751.34
2023-04-11T21:13:20.818Z,97747.00
2023-04-11T21:15:49.261Z,97738.13
2023-04-11T21:18:17.685Z,97755.06
2023-04-11T21:20:46.274Z,97749.69
2023-04-11T21:23:14.639Z,97745.97
2023-04-11T21:25:44.350Z,97750.34
2023-04-11T21:28:12.828Z,97748.50
2023-04-11T21:30:42.387Z,97754.69
2023-04-11T21:33:11.101Z,97749.31
2023-04-11T21:35:39.520Z,97744.78
2023-04-11T21:38:08.592Z,97747.44
2023-04-11T21:40:36.926Z,97756.38
2023-04-11T21:43:07.139Z,97748.31
2023-04-11T21:45:35.585Z,97756.38
2023-04-11T21:48:04.016Z,97752.81
2023-04-11T21:50:32.561Z,97763.25
2023-04-11T21:53:00.972Z,97759.69
2023-04-11T21:55:29.352Z,97763.41
2023-04-11T21:57:57.723Z,97756.38
2023-04-11T22:00:27.852Z,97760.72
2023-04-11T22:02:56.376Z,97754.69
2023-04-11T22:05:26.399Z,97762.75
2023-04-11T22:08:10.278Z,97745.81
2023-04-11T22:10:47.666Z,97749.31
2023-04-11T22:13:16.701Z,97753.84
2023-04-11T22:15:48.883Z,97749.31
2023-04-11T22:18:17.401Z,97760.06
2023-04-11T22:20:46.422Z,97756.53
2023-04-11T22:23:17.695Z,97755.72
2023-04-11T22:25:46.214Z,97754.69
2023-04-11T22:28:15.691Z,97757.38
2023-04-11T22:30:46.406Z,97762.75
2023-04-11T22:33:14.816Z,97751.16
2023-04-11T22:35:44.017Z,97765.63
2023-04-11T22:38:12.398Z,97761.09
2023-04-11T22:40:41.311Z,97763.78
2023-04-11T22:43:09.831Z,97754.03
2023-04-11T22:45:38.228Z,97758.41
2023-04-11T22:48:08.175Z,97761.91
2023-04-11T22:50:37.302Z,97759.41
2023-04-11T22:53:05.785Z,97754.25
2023-04-11T22:55:35.044Z,97756.09
2023-04-11T22:58:03.486Z,97756.28
2023-04-11T23:00:38.229Z,97749.06
2023-04-11T23:03:08.429Z,97756.28
2023-04-11T23:05:39.575Z,97758.13
2023-04-11T23:08:07.976Z,97752.78
2023-04-11T23:10:36.403Z,97757.75
2023-04-11T23:13:04.838Z,97758.78
2023-04-11T23:15:33.201Z,97750.72
2023-04-11T23:18:01.651Z,97752.56
2023-04-11T23:20:31.946Z,97741.81
2023-04-11T23:23:00.282Z,97753.41
2023-04-11T23:25:29.216Z,97750.91
2023-04-11T23:27:57.583Z,97757.94
2023-04-11T23:30:26.188Z,97757.94
2023-04-11T23:32:54.579Z,97753.41
2023-04-11T23:35:23.795Z,97756.09
2023-04-11T23:37:53.522Z,97757.94
2023-04-11T23:40:22.875Z,97765.16
2023-04-11T23:42:51.660Z,97758.97
2023-04-11T23:45:22.609Z,97757.09
2023-04-11T23:47:51.184Z,97754.63
2023-04-11T23:50:19.632Z,97756.28
2023-04-11T23:52:48.103Z,97754.41
2023-04-11T23:55:17.889Z,97752.78
2023-04-11T23:57:46.235Z,97754.63
